O'Neill, NE

9:01 AM CDT on October 02, 2014 (GMT -0500)
The O'Neill Municipal-Baker | Change Station
CLOSE
Current Station
Airport
Location: O'Neill,
Elevation: 2031 ft
Nearby Weather Stations

Elev 2031 ft 42.47 °N, 98.69 °W | Updated 6 minutes ago

Light Rain
Light Rain
53 °F
Feels Like 53 °F
N
8
Wind Variable Wind from NW

Today
High -- | Low -- °F
--% Chance of Precip.
Yesterday
High -- | Low -- °F
Precip. -- in
7:32 AM 7:14 PM
First Quarter, 59% visible
Pressure 29.95 in
Visibility 10.0 miles
Clouds Mostly Cloudy 6500 ft
Overcast 7500 ft
Dew Point 52 °F
Humidity 98%
Rainfall 0.65 in
Snow Depth Not available.
UV 0 out of 12
Pollen .50 out of 12
Air Quality Not available.
Flu Activity Not available.
METAR KONL 021355Z AUTO 32007KT 10SM -RA BKN065 OVC075 12/11 A2995 RMK AO2 LTG DSNT S P0001 T01150112

More Conditions Fewer Conditions

Pressure 29.95 in
Visibility 10.0 miles
Clouds Mostly Cloudy 6500 ft
Overcast 7500 ft
Dew Point 52 °F
Humidity 98%
Rainfall 0.65 in
Snow Depth Not available.
UV 0 out of 12
Pollen .50 out of 12
Air Quality Not available.
Flu Activity Not available.
METAR KONL 021355Z AUTO 32007KT 10SM -RA BKN065 OVC075 12/11 A2995 RMK AO2 LTG DSNT S P0001 T01150112

More Conditions Fewer Conditions

10-Day Weather Forecast

Almanac

Astronomy

Oct. 02, 2014 Rise Set
Actual Time 7:32 AM CDT 7:14 PM CDT
Civil Twilight 7:04 AM CDT 7:42 PM CDT
Nautical Twilight 6:32 AM CDT 8:14 PM CDT
Astronomical Twilight 5:59 AM CDT 8:47 PM CDT
Moon 3:28 PM CDT 12:44 AM CDT
Length of Visible Light 12h 37m
Length of Day
11h 41m
Tomorrow will be 2m 49s shorter.
First Quarter, 59% of the Moon is Illuminated
Today
First Quarter
Oct 8
Full
Oct 15
Last Quarter
Oct 23
New
Oct 30
First Quarter

Today's Extremes

State Highs State Lows

Community

WunderPhotos

Upload Photos

1,758,247 photos uploaded!

WunderBlogs® & News

Nearby

Snow Depth

Station Depth Elevation
No new snow has been reported.

Earthquake Activity

City Distance Mag. Time & Date
No recent earthquake activity has been reported nearby.
Minimum magnitude displayed is 2.5.

Coastal Water Temperatures

Place Temperature
No Stations Reporting

Nearby Weather Stations